Time;durP1;ratioP1;P1;durP2;ratioP2;P2;SDS_P1;SDS_P2;PMS_P1;PMS_P2;Temp;Humidity;BMP_temperature;BMP_pressure;BME280_temperature;BME280_humidity;BME280_pressure;Samples;Min_cycle;Max_cycle;Signal;HPM_P1;HPM_P2
2023/12/05 00:02:10;;;;;;;2.00;1.43;;;;;;;-2.06;100.00;99904.97;5110197;28;20450;-60
2023/12/05 00:04:37;;;;;;;2.50;1.20;;;;;;;-1.86;100.00;99893.94;5110228;28;20853;-60
2023/12/05 00:07:04;;;;;;;2.10;1.90;;;;;;;-1.88;100.00;99903.16;5110275;28;20509;-60
2023/12/05 00:09:31;;;;;;;3.33;2.30;;;;;;;-1.89;100.00;99908.97;5110056;28;20451;-60
2023/12/05 00:11:59;;;;;;;1.80;1.33;;;;;;;-2.00;100.00;99894.06;5109929;28;20443;-60
2023/12/05 00:14:26;;;;;;;2.10;1.97;;;;;;;-2.14;100.00;99896.66;5110001;28;20462;-60
2023/12/05 00:16:52;;;;;;;2.47;1.83;;;;;;;-2.15;100.00;99889.16;5109844;28;20462;-60
2023/12/05 00:19:19;;;;;;;2.47;1.73;;;;;;;-2.29;100.00;99886.75;5110047;28;20990;-60
2023/12/05 00:21:46;;;;;;;2.03;1.30;;;;;;;-2.32;100.00;99887.63;5109997;28;20447;-60
2023/12/05 00:24:13;;;;;;;2.73;1.93;;;;;;;-2.25;100.00;99892.56;5109758;28;20452;-60
2023/12/05 00:26:40;;;;;;;1.27;1.27;;;;;;;-2.25;100.00;99885.88;5109132;28;20874;-60
2023/12/05 00:29:08;;;;;;;1.00;1.00;;;;;;;-2.22;100.00;99888.38;5108567;28;20459;-60
2023/12/05 00:31:35;;;;;;;1.17;1.07;;;;;;;-2.13;100.00;99880.78;5108609;28;20471;-60
2023/12/05 00:34:02;;;;;;;2.07;1.10;;;;;;;-2.07;100.00;99888.25;5109242;28;20462;-60
2023/12/05 00:36:28;;;;;;;2.57;1.50;;;;;;;-2.09;100.00;99889.94;5109704;28;20462;-60
2023/12/05 00:38:55;;;;;;;2.17;1.00;;;;;;;-2.08;100.00;99891.59;5109780;28;20447;-60
2023/12/05 00:41:24;;;;;;;1.47;1.37;;;;;;;-2.16;100.00;99888.31;5109414;28;20451;-60
2023/12/05 00:43:52;;;;;;;3.50;1.50;;;;;;;-2.27;100.00;99885.06;5109597;28;20439;-60
2023/12/05 00:46:21;;;;;;;0.97;0.80;;;;;;;-2.29;100.00;99886.75;5109591;28;20443;-60
2023/12/05 00:48:47;;;;;;;4.67;2.30;;;;;;;-2.25;100.00;99887.56;5109207;28;20447;-60
2023/12/05 00:51:14;;;;;;;3.13;2.80;;;;;;;-2.28;100.00;99878.41;5109251;28;20826;-60
2023/12/05 00:53:41;;;;;;;2.67;1.80;;;;;;;-2.30;100.00;99870.06;5109349;28;20447;-60
2023/12/05 00:56:11;;;;;;;1.70;1.37;;;;;;;-2.29;100.00;99872.56;5109254;28;20497;-60
2023/12/05 00:58:38;;;;;;;2.60;2.13;;;;;;;-2.35;100.00;99871.78;5109455;28;20455;-60
2023/12/05 01:01:05;;;;;;;3.47;2.10;;;;;;;-2.30;100.00;99865.91;5109292;28;20478;-60
2023/12/05 01:03:33;;;;;;;1.27;1.20;;;;;;;-2.35;100.00;99861.75;5108541;28;20956;-60
2023/12/05 01:06:00;;;;;;;0.90;0.90;;;;;;;-2.35;100.00;99856.75;5109046;28;20453;-60
2023/12/05 01:08:27;;;;;;;2.47;2.20;;;;;;;-2.42;100.00;99850.13;5108934;28;20494;-60
2023/12/05 01:10:53;;;;;;;1.20;1.00;;;;;;;-2.40;100.00;99845.94;5109059;28;20459;-60
2023/12/05 01:13:20;;;;;;;4.57;1.87;;;;;;;-2.38;100.00;99836.75;5109281;28;20457;-60
2023/12/05 01:15:46;;;;;;;1.60;1.50;;;;;;;-2.49;100.00;99833.50;5108938;28;20484;-60
2023/12/05 01:18:13;;;;;;;1.40;1.30;;;;;;;-2.51;100.00;99831.81;5108803;28;20623;-60
2023/12/05 01:20:41;;;;;;;1.43;1.33;;;;;;;-2.48;100.00;99822.63;5108650;28;20640;-60
2023/12/05 01:23:08;;;;;;;1.20;1.10;;;;;;;-2.48;100.00;99827.63;5108856;28;20830;-60
2023/12/05 01:25:34;;;;;;;5.63;1.60;;;;;;;-2.39;100.00;99825.06;5109012;28;20455;-60
2023/12/05 01:28:02;;;;;;;0.67;0.67;;;;;;;-2.34;100.00;99828.34;5109179;28;20494;-60
2023/12/05 01:30:29;;;;;;;1.47;1.20;;;;;;;-2.38;100.00;99829.25;5108999;28;20487;-60
2023/12/05 01:32:56;;;;;;;2.90;1.90;;;;;;;-2.39;100.00;99822.53;5108706;28;20454;-60
2023/12/05 01:35:22;;;;;;;0.70;0.70;;;;;;;-2.48;100.00;99815.13;5109300;28;20540;-60
2023/12/05 01:37:51;;;;;;;1.23;1.13;;;;;;;-2.55;100.00;99805.16;5108884;28;20454;-60
2023/12/05 01:40:18;;;;;;;1.43;1.23;;;;;;;-2.65;100.00;99806.03;5108806;28;20812;-60
2023/12/05 01:42:45;;;;;;;1.07;1.00;;;;;;;-2.66;100.00;99799.38;5108660;28;20812;-60
2023/12/05 01:45:12;;;;;;;0.70;0.70;;;;;;;-2.57;100.00;99801.81;5108633;28;20744;-60
2023/12/05 01:47:40;;;;;;;4.73;2.70;;;;;;;-2.61;100.00;99800.19;5108806;28;20501;-60
2023/12/05 01:50:10;;;;;;;1.97;1.23;;;;;;;-2.64;100.00;99807.72;5108632;28;20455;-60
2023/12/05 01:52:40;;;;;;;0.67;0.67;;;;;;;-2.62;100.00;99807.69;5108642;28;20450;-60
2023/12/05 01:55:10;;;;;;;1.60;1.50;;;;;;;-2.63;100.00;99801.03;5108593;28;20520;-60
2023/12/05 01:57:37;;;;;;;1.60;1.10;;;;;;;-2.65;100.00;99801.03;5109167;28;20451;-60
2023/12/05 02:00:06;;;;;;;1.40;1.30;;;;;;;-2.69;100.00;99806.91;5108532;28;20446;-60
2023/12/05 02:02:35;;;;;;;1.90;1.37;;;;;;;-2.59;100.00;99806.03;5108493;28;20451;-60
2023/12/05 02:05:02;;;;;;;2.33;1.67;;;;;;;-2.62;100.00;99816.06;5108746;28;20458;-60
2023/12/05 02:07:31;;;;;;;2.13;1.40;;;;;;;-2.60;100.00;99816.84;5108538;28;20487;-60
2023/12/05 02:09:58;;;;;;;0.90;0.90;;;;;;;-2.62;100.00;99813.56;5108547;28;20453;-60
2023/12/05 02:12:26;;;;;;;2.00;1.23;;;;;;;-2.66;100.00;99814.41;5108524;28;20956;-60
2023/12/05 02:14:53;;;;;;;0.37;0.37;;;;;;;-2.68;100.00;99812.75;5108270;28;20454;-60
2023/12/05 02:17:25;;;;;;;1.93;1.67;;;;;;;-2.77;100.00;99809.47;5112318;28;20779;-60
2023/12/05 02:20:00;;;;;;;7.70;1.50;;;;;;;-2.81;100.00;99807.00;5112187;28;20760;-60
2023/12/05 02:22:54;;;;;;;0.50;0.50;;;;;;;-2.70;100.00;99799.44;5112190;28;20438;-60
2023/12/05 02:25:33;;;;;;;1.80;1.70;;;;;;;-2.65;100.00;99800.22;5112161;28;20500;-60
2023/12/05 02:28:02;;;;;;;1.60;0.77;;;;;;;-2.81;100.00;99792.00;5112438;28;20529;-60
2023/12/05 02:30:29;;;;;;;0.77;0.77;;;;;;;-2.88;100.00;99787.84;5112077;28;21146;-60
2023/12/05 02:32:56;;;;;;;2.90;1.57;;;;;;;-2.86;100.00;99773.66;5112234;28;20459;-60
2023/12/05 02:35:23;;;;;;;0.90;0.87;;;;;;;-2.92;100.00;99779.53;5111907;28;20451;-60
2023/12/05 02:37:57;;;;;;;0.63;0.57;;;;;;;-2.97;100.00;99777.09;5111908;28;20474;-61
2023/12/05 02:40:30;;;;;;;3.03;0.83;;;;;;;-2.96;100.00;99771.22;5111816;28;20446;-60
2023/12/05 02:42:58;;;;;;;1.73;1.63;;;;;;;-2.91;100.00;99775.34;5111844;28;20439;-60
2023/12/05 02:45:30;;;;;;;0.83;0.83;;;;;;;-2.90;100.00;99767.03;5111614;27;20451;-60
2023/12/05 02:48:01;;;;;;;1.40;1.07;;;;;;;-2.97;100.00;99772.06;5111559;28;20505;-60
2023/12/05 02:50:28;;;;;;;3.60;2.27;;;;;;;-2.96;100.00;99768.72;5111811;28;20435;-60
2023/12/05 02:52:55;;;;;;;1.50;0.90;;;;;;;-2.86;100.00;99766.16;5111591;28;20455;-60
2023/12/05 02:55:22;;;;;;;0.67;0.67;;;;;;;-2.82;100.00;99762.78;5111542;28;20959;-60
2023/12/05 02:57:48;;;;;;;4.90;1.33;;;;;;;-2.79;100.00;99770.28;5111603;28;20454;-60
2023/12/05 03:00:16;;;;;;;1.63;0.90;;;;;;;-2.74;100.00;99771.06;5111430;28;20465;-61
2023/12/05 03:02:44;;;;;;;3.70;0.80;;;;;;;-2.69;100.00;99766.03;5111564;28;20458;-60
2023/12/05 03:05:11;;;;;;;0.43;0.43;;;;;;;-2.66;100.00;99761.84;5111310;28;20439;-60
2023/12/05 03:07:38;;;;;;;6.33;2.63;;;;;;;-2.76;100.00;99770.28;5110974;28;20491;-60
2023/12/05 03:10:05;;;;;;;1.90;1.57;;;;;;;-2.81;100.00;99761.97;5109960;28;20995;-60
2023/12/05 03:12:33;;;;;;;2.33;1.83;;;;;;;-2.76;100.00;99772.78;5110925;28;20446;-60
2023/12/05 03:15:00;;;;;;;2.90;2.67;;;;;;;-2.86;100.00;99771.16;5111019;28;20455;-60
2023/12/05 03:17:27;;;;;;;1.00;1.00;;;;;;;-2.92;100.00;99762.03;5111169;28;20999;-60
2023/12/05 03:19:55;;;;;;;1.93;1.27;;;;;;;-2.93;100.00;99762.88;5111030;28;20444;-60
2023/12/05 03:22:22;;;;;;;2.33;1.67;;;;;;;-3.03;100.00;99762.09;5110990;28;20454;-60
2023/12/05 03:24:50;;;;;;;1.90;1.67;;;;;;;-3.06;100.00;99762.09;5111020;28;20952;-60
2023/12/05 03:27:17;;;;;;;1.30;1.27;;;;;;;-3.06;100.00;99756.28;5110469;28;20474;-60
2023/12/05 03:29:43;;;;;;;0.60;0.60;;;;;;;-3.02;100.00;99752.94;5110847;28;20455;-60
2023/12/05 03:32:11;;;;;;;1.60;1.20;;;;;;;-3.03;100.00;99757.06;5110579;28;20865;-60
2023/12/05 03:34:38;;;;;;;2.03;1.73;;;;;;;-3.05;100.00;99756.28;5110698;28;20458;-60
2023/12/05 03:37:06;;;;;;;1.70;1.60;;;;;;;-3.10;100.00;99750.47;5110786;28;20447;-60
2023/12/05 03:39:33;;;;;;;1.97;1.10;;;;;;;-3.19;100.00;99745.53;5110677;28;20463;-60
2023/12/05 03:42:00;;;;;;;3.13;1.10;;;;;;;-3.20;100.00;99741.34;5110602;28;20483;-60
2023/12/05 03:44:27;;;;;;;1.10;0.83;;;;;;;-3.33;100.00;99747.28;5110532;28;20888;-60
2023/12/05 03:46:54;;;;;;;0.87;0.87;;;;;;;-3.39;100.00;99740.63;5110778;28;20446;-60
2023/12/05 03:49:20;;;;;;;7.73;2.93;;;;;;;-3.32;100.00;99729.75;5109686;28;20494;-60
2023/12/05 03:51:47;;;;;;;0.47;0.47;;;;;;;-3.20;100.00;99723.84;5108962;28;20554;-60
2023/12/05 03:54:15;;;;;;;1.10;1.10;;;;;;;-3.33;100.00;99712.25;5109949;28;20443;-60
2023/12/05 03:56:42;;;;;;;2.30;1.50;;;;;;;-3.44;100.00;99704.81;5110230;28;20443;-60
2023/12/05 03:59:09;;;;;;;2.00;1.07;;;;;;;-3.49;100.00;99702.38;5110505;28;20556;-60
2023/12/05 04:01:36;;;;;;;2.00;1.20;;;;;;;-3.41;100.00;99700.63;5110398;28;20454;-60
2023/12/05 04:04:02;;;;;;;0.97;0.97;;;;;;;-3.50;100.00;99690.69;5110123;28;20454;-60
2023/12/05 04:06:29;;;;;;;2.13;1.10;;;;;;;-3.43;100.00;99699.00;5110373;28;20462;-60
2023/12/05 04:08:56;;;;;;;5.40;1.37;;;;;;;-3.41;100.00;99700.63;5109994;28;20498;-60
2023/12/05 04:11:30;;;;;;;4.80;1.00;;;;;;;-3.50;100.00;99690.69;5109982;28;20947;-60
2023/12/05 04:13:58;;;;;;;1.43;1.33;;;;;;;-3.51;100.00;99683.22;5109983;28;20547;-60
2023/12/05 04:16:25;;;;;;;0.57;0.57;;;;;;;-3.51;100.00;99679.03;5109805;28;20466;-60
2023/12/05 04:18:52;;;;;;;2.40;1.27;;;;;;;-3.41;100.00;99679.81;5110131;28;20447;-60
2023/12/05 04:21:19;;;;;;;1.33;1.23;;;;;;;-3.43;100.00;99674.84;5109960;28;20455;-60
2023/12/05 04:23:46;;;;;;;2.80;1.60;;;;;;;-3.45;100.00;99679.00;5109713;28;20459;-60
2023/12/05 04:26:15;;;;;;;2.43;1.53;;;;;;;-3.45;100.00;99686.50;5109710;28;20472;-60
2023/12/05 04:28:43;;;;;;;3.10;1.63;;;;;;;-3.43;100.00;99686.50;5109600;28;20491;-60
2023/12/05 04:31:11;;;;;;;0.63;0.43;;;;;;;-3.42;100.00;99686.47;5109759;28;20468;-60
2023/12/05 04:33:39;;;;;;;1.23;1.17;;;;;;;-3.38;100.00;99669.78;5109588;28;20439;-60
2023/12/05 04:36:07;;;;;;;3.37;1.80;;;;;;;-3.41;100.00;99669.81;5109919;28;20443;-60
2023/12/05 04:38:34;;;;;;;3.47;1.27;;;;;;;-3.41;100.00;99685.63;5108661;28;20439;-60
2023/12/05 04:41:01;;;;;;;0.97;0.80;;;;;;;-3.27;100.00;99694.72;5110007;28;20518;-60
2023/12/05 04:43:28;;;;;;;0.43;0.43;;;;;;;-3.32;100.00;99703.91;5109475;28;20453;-60
2023/12/05 04:45:56;;;;;;;0.97;0.90;;;;;;;-3.28;100.00;99698.06;5109841;28;20465;-60
2023/12/05 04:48:23;;;;;;;1.50;1.13;;;;;;;-3.30;100.00;99707.25;5109275;28;20880;-60
2023/12/05 04:50:50;;;;;;;5.60;1.17;;;;;;;-3.30;100.00;99714.75;5109414;28;20473;-60
2023/12/05 04:53:17;;;;;;;2.37;0.90;;;;;;;-3.29;100.00;99717.22;5109247;28;20447;-60
2023/12/05 04:55:43;;;;;;;1.57;1.47;;;;;;;-3.38;100.00;99708.97;5109079;28;20450;-60
2023/12/05 04:58:10;;;;;;;0.53;0.50;;;;;;;-3.49;100.00;99711.50;5109277;28;20451;-60
2023/12/05 05:00:37;;;;;;;2.33;1.27;;;;;;;-3.46;100.00;99716.47;5109027;28;20448;-60
2023/12/05 05:03:05;;;;;;;0.63;0.60;;;;;;;-3.32;100.00;99729.75;5109417;28;20504;-60
2023/12/05 05:05:32;;;;;;;1.57;1.47;;;;;;;-3.23;100.00;99727.22;5109193;28;20447;-60
2023/12/05 05:07:59;;;;;;;1.37;0.90;;;;;;;-3.19;100.00;99718.03;5108935;28;20458;-60
2023/12/05 05:10:26;;;;;;;1.73;1.63;;;;;;;-3.38;100.00;99709.78;5109123;28;20458;-60
2023/12/05 05:12:53;;;;;;;2.03;1.63;;;;;;;-3.27;100.00;99713.06;5109042;28;20979;-60
2023/12/05 05:15:19;;;;;;;0.97;0.97;;;;;;;-3.32;100.00;99728.91;5108987;28;20513;-60
2023/12/05 05:17:46;;;;;;;2.47;1.13;;;;;;;-3.23;100.00;99724.72;5108830;28;20451;-60
2023/12/05 05:20:14;;;;;;;2.30;1.47;;;;;;;-3.25;100.00;99715.56;5109243;28;20446;-60
2023/12/05 05:22:41;;;;;;;1.47;1.33;;;;;;;-3.38;100.00;99712.28;5107720;28;20458;-60
2023/12/05 05:25:09;;;;;;;1.80;1.70;;;;;;;-3.23;100.00;99706.34;5107462;28;20443;-60
2023/12/05 05:27:36;;;;;;;2.03;1.80;;;;;;;-3.10;100.00;99710.44;5108742;28;20849;-60
2023/12/05 05:30:03;;;;;;;1.50;1.30;;;;;;;-3.04;100.00;99710.41;5108980;28;20491;-60
2023/12/05 05:32:30;;;;;;;1.97;1.87;;;;;;;-2.93;100.00;99699.50;5108769;28;20455;-60
2023/12/05 05:34:56;;;;;;;1.13;1.10;;;;;;;-2.83;100.00;99696.91;5108549;28;20521;-60
2023/12/05 05:37:25;;;;;;;3.20;2.07;;;;;;;-2.87;100.00;99696.97;5108693;28;20455;-60
2023/12/05 05:39:53;;;;;;;1.93;1.63;;;;;;;-2.87;100.00;99690.28;5108834;28;20457;-60
2023/12/05 05:42:20;;;;;;;0.97;0.97;;;;;;;-2.93;100.00;99687.00;5108786;28;20468;-60
2023/12/05 05:44:47;;;;;;;1.97;1.87;;;;;;;-3.09;100.00;99691.25;5108679;28;20455;-60
2023/12/05 05:47:13;;;;;;;1.53;1.40;;;;;;;-2.93;100.00;99702.00;5108411;28;20482;-60
2023/12/05 05:49:40;;;;;;;1.60;1.23;;;;;;;-2.84;100.00;99691.94;5109544;28;20486;-60
2023/12/05 05:52:07;;;;;;;1.23;0.87;;;;;;;-2.75;100.00;99692.66;5112927;28;20450;-60
2023/12/05 05:54:35;;;;;;;1.53;1.43;;;;;;;-2.68;100.00;99695.94;5112990;27;20567;-60
2023/12/05 05:57:02;;;;;;;1.43;1.33;;;;;;;-2.64;100.00;99705.09;5112562;28;20952;-60
2023/12/05 05:59:29;;;;;;;1.30;1.20;;;;;;;-2.61;100.00;99706.75;5112555;28;20836;-60
2023/12/05 06:01:56;;;;;;;3.50;1.23;;;;;;;-2.55;100.00;99695.00;5112528;28;20869;-60
2023/12/05 06:04:23;;;;;;;2.83;1.80;;;;;;;-2.46;100.00;99698.25;5112750;28;20451;-60
2023/12/05 06:06:50;;;;;;;3.10;1.97;;;;;;;-2.35;100.00;99691.47;5112454;28;20443;-60
2023/12/05 06:09:17;;;;;;;2.23;1.30;;;;;;;-2.52;100.00;99674.13;5112587;28;20490;-60
2023/12/05 06:11:45;;;;;;;2.67;1.97;;;;;;;-2.51;100.00;99674.09;5112389;28;20447;-60
2023/12/05 06:14:10;;;;;;;1.80;1.70;;;;;;;-2.55;100.00;99674.16;5112411;27;20457;-60
2023/12/05 06:16:37;;;;;;;3.00;2.70;;;;;;;-2.50;100.00;99667.44;5112405;28;20451;-60
2023/12/05 06:19:04;;;;;;;1.57;1.47;;;;;;;-2.44;100.00;99677.38;5112266;28;20197;-61
2023/12/05 06:21:31;;;;;;;1.87;1.47;;;;;;;-2.30;100.00;99682.22;5112160;28;20875;-60
2023/12/05 06:23:58;;;;;;;3.50;2.33;;;;;;;-2.17;100.00;99685.44;5112202;28;20462;-60
2023/12/05 06:26:25;;;;;;;2.13;1.27;;;;;;;-1.98;100.00;99681.03;5112098;28;20455;-60
2023/12/05 06:28:53;;;;;;;1.43;1.10;;;;;;;-1.97;100.00;99667.69;5112053;28;20486;-60
2023/12/05 06:31:20;;;;;;;2.57;1.47;;;;;;;-2.01;100.00;99666.06;5111910;28;20467;-60
2023/12/05 06:33:46;;;;;;;1.80;1.63;;;;;;;-1.93;100.00;99674.31;5111851;28;20986;-60
2023/12/05 06:36:14;;;;;;;1.00;1.00;;;;;;;-2.06;100.00;99661.94;5112106;28;20851;-60
2023/12/05 06:38:40;;;;;;;1.47;1.13;;;;;;;-1.87;100.00;99649.16;5111598;28;20451;-60
2023/12/05 06:41:08;;;;;;;3.37;2.20;;;;;;;-1.88;100.00;99642.50;5112175;27;20454;-60
2023/12/05 06:43:35;;;;;;;3.07;2.77;;;;;;;-1.83;100.00;99629.06;5111879;28;20447;-60
2023/12/05 06:46:04;;;;;;;1.00;0.80;;;;;;;-1.80;100.00;99615.69;5111734;28;20457;-60
2023/12/05 06:48:30;;;;;;;2.47;1.60;;;;;;;-1.92;100.00;99613.31;5111755;28;20447;-60
2023/12/05 06:50:57;;;;;;;4.20;2.00;;;;;;;-2.14;100.00;99621.09;5111621;27;20455;-60
2023/12/05 06:53:24;;;;;;;1.40;1.30;;;;;;;-2.12;100.00;99606.06;5111638;28;20447;-60
2023/12/05 06:55:51;;;;;;;1.00;0.90;;;;;;;-2.14;100.00;99606.06;5111719;28;20471;-60
2023/12/05 06:58:18;;;;;;;0.70;0.70;;;;;;;-2.26;100.00;99611.25;5111560;28;20944;-60
2023/12/05 07:00:45;;;;;;;2.13;1.97;;;;;;;-2.08;100.00;99611.00;5111143;28;20451;-60
2023/12/05 07:03:13;;;;;;;0.83;0.83;;;;;;;-2.20;100.00;99608.66;5111164;28;20465;-60
2023/12/05 07:05:40;;;;;;;0.57;0.57;;;;;;;-2.33;100.00;99609.63;5111109;28;20998;-60
2023/12/05 07:08:07;;;;;;;2.10;1.77;;;;;;;-2.40;100.00;99608.06;5111381;28;21012;-60
2023/12/05 07:10:34;;;;;;;1.63;1.53;;;;;;;-2.45;100.00;99619.78;5111593;28;20490;-60
2023/12/05 07:13:02;;;;;;;0.93;0.93;;;;;;;-2.40;100.00;99628.09;5111531;27;20443;-60
2023/12/05 07:15:29;;;;;;;1.70;1.60;;;;;;;-2.26;100.00;99628.78;5111166;28;20905;-60
2023/12/05 07:17:55;;;;;;;1.17;1.17;;;;;;;-2.25;100.00;99612.88;5111095;28;20471;-60
2023/12/05 07:20:24;;;;;;;4.23;1.70;;;;;;;-2.20;100.00;99608.66;5111223;28;20447;-60
2023/12/05 07:22:51;;;;;;;9.07;3.93;;;;;;;-1.96;100.00;99614.22;5111022;28;20579;-60
2023/12/05 07:25:18;;;;;;;2.77;2.57;;;;;;;-1.77;100.00;99605.63;5110952;28;20451;-60
2023/12/05 07:27:45;;;;;;;1.67;1.47;;;;;;;-1.64;100.00;99612.09;5111126;28;20459;-60
2023/12/05 07:30:12;;;;;;;2.13;1.93;;;;;;;-1.39;100.00;99616.75;5111013;28;20505;-60
2023/12/05 07:32:39;;;;;;;3.10;1.47;;;;;;;-1.25;100.00;99614.88;5110810;28;20455;-60
2023/12/05 07:35:06;;;;;;;5.10;3.37;;;;;;;-1.10;100.00;99613.81;5110834;28;20875;-60
2023/12/05 07:37:35;;;;;;;1.13;1.13;;;;;;;-0.91;100.00;99614.31;5110736;28;20451;-60
2023/12/05 07:40:02;;;;;;;1.57;1.13;;;;;;;-0.59;100.00;99615.44;5110854;27;20200;-60
2023/12/05 07:42:28;;;;;;;3.13;2.33;;;;;;;-0.36;100.00;99620.84;5110573;28;20211;-60
2023/12/05 07:44:55;;;;;;;2.10;1.90;;;;;;;-0.27;100.00;99617.31;5110547;28;20201;-60
2023/12/05 07:47:23;;;;;;;2.23;1.50;;;;;;;0.02;100.00;99623.47;5110678;28;20224;-60
2023/12/05 07:49:50;;;;;;;2.80;1.70;;;;;;;0.25;100.00;99621.28;5110694;28;20228;-60
2023/12/05 07:52:18;;;;;;;2.37;1.87;;;;;;;0.38;100.00;99619.34;5110543;28;20205;-60
2023/12/05 07:54:46;;;;;;;2.43;1.90;;;;;;;0.57;100.00;99613.03;5110288;28;20216;-60
2023/12/05 07:57:21;;;;;;;5.43;3.13;;;;;;;0.84;100.00;99605.69;5110223;28;20212;-59
2023/12/05 07:59:48;;;;;;;5.73;2.30;;;;;;;1.07;100.00;99610.97;5110589;28;20221;-60
2023/12/05 08:02:15;;;;;;;4.23;3.40;;;;;;;1.19;100.00;99611.53;5110147;28;20217;-60
2023/12/05 08:04:42;;;;;;;4.90;2.80;;;;;;;1.38;100.00;99610.19;5110211;28;20208;-59
2023/12/05 08:07:09;;;;;;;3.33;2.30;;;;;;;1.63;100.00;99607.00;5110146;28;20210;-60
2023/12/05 08:09:36;;;;;;;3.10;1.83;;;;;;;1.87;100.00;99605.53;5110085;28;20248;-60
2023/12/05 08:12:05;;;;;;;3.13;1.97;;;;;;;2.18;100.00;99610.50;5110144;28;20193;-60
2023/12/05 08:14:32;;;;;;;3.00;2.50;;;;;;;2.51;100.00;99612.91;5110002;28;20201;-60
2023/12/05 08:16:58;;;;;;;5.47;3.30;;;;;;;2.58;100.00;99617.69;5110190;28;20205;-60
2023/12/05 08:19:26;;;;;;;6.27;2.90;;;;;;;2.66;100.00;99619.97;5109859;28;20208;-60
2023/12/05 08:21:53;;;;;;;9.47;4.53;;;;;;;2.63;100.00;99607.47;5109851;28;20690;-60
2023/12/05 08:24:19;;;;;;;10.17;4.27;;;;;;;2.68;100.00;99600.56;5108330;28;20236;-60
2023/12/05 08:26:46;;;;;;;2.40;2.00;;;;;;;2.84;100.00;99606.75;5108405;28;20594;-61
2023/12/05 08:29:14;;;;;;;6.07;2.93;;;;;;;3.08;100.00;99610.19;5108313;28;20377;-60
2023/12/05 08:31:41;;;;;;;2.83;2.07;;;;;;;3.26;100.00;99613.81;5109636;28;20205;-61
2023/12/05 08:34:08;;;;;;;8.50;4.20;;;;;;;3.43;100.00;99619.97;5109805;28;20201;-61
2023/12/05 08:36:35;;;;;;;6.93;3.67;;;;;;;3.54;100.00;99623.78;5109750;28;20197;-61
2023/12/05 08:39:03;;;;;;;2.77;2.40;;;;;;;3.50;100.00;99629.84;5109471;28;20359;-61
2023/12/05 08:41:30;;;;;;;5.83;4.07;;;;;;;3.55;100.00;99619.56;5109408;28;20273;-62
2023/12/05 08:43:57;;;;;;;6.00;4.17;;;;;;;3.75;100.00;99622.22;5109553;28;20213;-62
2023/12/05 08:46:25;;;;;;;8.87;2.67;;;;;;;3.88;100.00;99615.00;5109299;28;20216;-62
2023/12/05 08:48:52;;;;;;;3.93;3.40;;;;;;;3.92;100.00;99629.19;5109369;28;20201;-62
2023/12/05 08:51:19;;;;;;;6.33;4.30;;;;;;;3.81;100.00;99642.25;5109369;28;20197;-62
2023/12/05 08:53:45;;;;;;;4.80;3.10;;;;;;;3.75;100.00;99652.56;5109271;28;20200;-62
2023/12/05 08:56:12;;;;;;;6.47;4.03;;;;;;;3.44;100.00;99642.69;5109476;28;20216;-62
2023/12/05 08:58:39;;;;;;;9.27;4.07;;;;;;;3.63;100.00;99633.56;5109150;28;20717;-61
2023/12/05 09:01:07;;;;;;;6.30;2.97;;;;;;;3.54;100.00;99620.44;5109267;28;20197;-61
2023/12/05 09:03:35;;;;;;;6.07;3.53;;;;;;;3.58;100.00;99607.66;5109180;28;20704;-61
2023/12/05 09:06:02;;;;;;;5.07;2.90;;;;;;;3.39;100.00;99607.44;5109244;28;20201;-61
2023/12/05 09:08:29;;;;;;;5.53;3.10;;;;;;;3.03;100.00;99622.16;5109162;28;20205;-61
2023/12/05 09:10:57;;;;;;;5.53;3.20;;;;;;;2.88;100.00;99623.47;5109313;28;20682;-62
2023/12/05 09:13:24;;;;;;;5.80;3.10;;;;;;;3.17;100.00;99619.16;5109112;28;20193;-62
2023/12/05 09:15:50;;;;;;;4.07;2.63;;;;;;;3.15;100.00;99623.47;5109135;28;20197;-61
2023/12/05 09:18:17;;;;;;;7.40;4.03;;;;;;;2.78;100.00;99632.22;5108842;28;20198;-61
2023/12/05 09:20:46;;;;;;;4.77;3.37;;;;;;;2.69;100.00;99622.41;5108770;28;20670;-61
2023/12/05 09:23:13;;;;;;;11.37;3.53;;;;;;;2.68;100.00;99605.63;5108932;28;20201;-61
2023/12/05 09:25:40;;;;;;;3.67;2.07;;;;;;;2.67;100.00;99614.88;5108262;28;20197;-61
2023/12/05 09:28:07;;;;;;;5.00;3.70;;;;;;;2.75;100.00;99601.19;5109006;28;20205;-61
2023/12/05 09:30:34;;;;;;;2.27;2.07;;;;;;;3.17;100.00;99598.94;5108929;28;20228;-61
2023/12/05 09:33:01;;;;;;;9.00;3.77;;;;;;;3.55;100.00;99584.16;5108677;28;20200;-61
2023/12/05 09:35:28;;;;;;;6.53;4.07;;;;;;;3.33;100.00;99584.09;5108871;28;20219;-61
2023/12/05 09:37:57;;;;;;;7.23;4.13;;;;;;;3.25;100.00;99588.59;5108699;28;20197;-61
2023/12/05 09:40:24;;;;;;;4.77;2.87;;;;;;;3.64;100.00;99588.91;5108717;28;20281;-61
2023/12/05 09:42:53;;;;;;;8.80;4.13;;;;;;;3.59;100.00;99601.69;5109098;28;20208;-61
2023/12/05 09:45:21;;;;;;;5.97;3.83;;;;;;;3.23;100.00;99593.72;5108870;28;20193;-61
2023/12/05 09:47:50;;;;;;;7.93;3.67;;;;;;;3.26;100.00;99580.97;5108860;28;20211;-61
2023/12/05 09:50:18;;;;;;;7.37;4.27;;;;;;;3.13;100.00;99584.78;5108809;28;20232;-61
2023/12/05 09:52:45;;;;;;;9.80;4.57;;;;;;;2.89;100.00;99572.09;5108650;28;20200;-61
2023/12/05 09:55:14;;;;;;;3.97;2.30;;;;;;;3.21;100.00;99559.25;5108406;28;20250;-61
2023/12/05 09:57:41;;;;;;;12.87;3.07;;;;;;;3.62;100.00;99575.50;5108719;28;20205;-61
2023/12/05 10:00:09;;;;;;;3.20;2.30;;;;;;;3.42;99.87;99565.25;5108805;28;20197;-61
2023/12/05 10:02:38;;;;;;;6.20;3.80;;;;;;;2.97;99.98;99556.69;5108590;28;20198;-61
2023/12/05 10:05:08;;;;;;;7.43;3.10;;;;;;;2.62;100.00;99557.84;5108678;28;20197;-61
2023/12/05 10:07:35;;;;;;;8.30;3.50;;;;;;;2.52;100.00;99549.72;5108557;28;20201;-61
2023/12/05 10:10:04;;;;;;;8.50;5.07;;;;;;;2.51;100.00;99548.09;5108328;28;20236;-61
2023/12/05 10:12:33;;;;;;;5.27;3.37;;;;;;;2.37;100.00;99540.94;5108421;28;20201;-61
2023/12/05 10:15:02;;;;;;;5.70;3.43;;;;;;;2.09;100.00;99535.91;5108413;28;20205;-62
2023/12/05 10:17:32;;;;;;;6.73;3.00;;;;;;;1.92;100.00;99523.84;5108256;28;20225;-62
2023/12/05 10:19:59;;;;;;;4.73;3.53;;;;;;;1.87;100.00;99520.63;5108381;28;20193;-61
2023/12/05 10:22:26;;;;;;;9.53;3.83;;;;;;;1.77;100.00;99515.00;5106861;28;20210;-61
2023/12/05 10:24:56;;;;;;;6.07;3.23;;;;;;;1.80;100.00;99516.63;5107526;28;20205;-62
2023/12/05 10:27:22;;;;;;;5.63;2.90;;;;;;;1.67;100.00;99517.88;5108644;28;20650;-62
2023/12/05 10:29:50;;;;;;;4.50;2.73;;;;;;;1.67;100.00;99512.81;5108568;28;20240;-61
2023/12/05 10:32:18;;;;;;;5.03;3.13;;;;;;;1.76;100.00;99497.44;5108674;28;20190;-61
2023/12/05 10:34:48;;;;;;;4.07;3.40;;;;;;;1.82;100.00;99507.31;5108271;28;20204;-62
2023/12/05 10:37:15;;;;;;;4.07;3.00;;;;;;;1.86;100.00;99503.00;5109955;28;20200;-62
2023/12/05 10:39:42;;;;;;;8.90;3.70;;;;;;;1.84;100.00;99498.03;5111671;27;20193;-62
2023/12/05 10:42:09;;;;;;;8.70;3.47;;;;;;;1.92;100.00;99496.09;5112153;28;20662;-61
2023/12/05 10:44:40;;;;;;;7.70;3.47;;;;;;;1.77;100.00;99504.09;5111991;28;20197;-62
2023/12/05 10:47:10;;;;;;;4.70;3.47;;;;;;;1.91;100.00;99493.63;5111870;28;20258;-61
2023/12/05 10:49:38;;;;;;;6.73;4.37;;;;;;;2.17;100.00;99493.63;5111639;28;20243;-62
2023/12/05 10:52:05;;;;;;;4.77;2.87;;;;;;;2.11;100.00;99487.97;5111593;28;20197;-61
2023/12/05 10:54:32;;;;;;;6.07;3.63;;;;;;;2.14;100.00;99475.25;5112080;28;20224;-61
2023/12/05 10:56:59;;;;;;;4.53;2.80;;;;;;;2.11;100.00;99482.91;5111555;28;20212;-61
2023/12/05 10:59:27;;;;;;;6.37;3.77;;;;;;;2.27;100.00;99489.16;5111587;28;20197;-61
2023/12/05 11:01:56;;;;;;;6.63;4.53;;;;;;;2.36;100.00;99488.03;5111506;28;20287;-62
2023/12/05 11:04:25;;;;;;;10.50;4.53;;;;;;;2.36;100.00;99491.38;5111443;28;20204;-61
2023/12/05 11:06:53;;;;;;;6.20;3.70;;;;;;;2.15;100.00;99495.41;5111478;28;20193;-61
2023/12/05 11:09:20;;;;;;;11.10;3.10;;;;;;;2.09;100.00;99495.56;5111327;28;20226;-62
2023/12/05 11:11:49;;;;;;;5.60;3.20;;;;;;;2.23;100.00;99487.56;5111242;28;20441;-61
2023/12/05 11:14:17;;;;;;;5.03;3.30;;;;;;;2.22;100.00;99488.47;5111438;28;20193;-61
2023/12/05 11:16:50;;;;;;;5.43;3.63;;;;;;;2.39;100.00;99488.75;5111172;28;20205;-62
2023/12/05 11:19:29;;;;;;;4.53;3.40;;;;;;;2.38;100.00;99487.06;5111012;28;20670;-61
2023/12/05 11:22:05;;;;;;;3.60;3.13;;;;;;;2.46;100.00;99499.47;5110986;28;20205;-61
2023/12/05 11:25:05;;;;;;;12.83;3.40;;;;;;;2.49;100.00;99492.59;5111052;28;20231;-61
2023/12/05 11:27:44;;;;;;;6.13;4.17;;;;;;;2.37;100.00;99485.44;5095268;28;20216;-61
2023/12/05 11:30:32;;;;;;;4.10;2.70;;;;;;;2.39;100.00;99486.22;5111133;27;20236;-61